PWSweather.com
Personal Weather Stations
Station Observations
SHAHALMS1
Eftra, Falkenberg, HA

EftraFalkenberg, HA

Lat: 56.85, Lon: 12.65

Elevation: 140

Station Type:

http://hem.passagen.se/risarp101

High Low Average
Temperature 66.9°F19.4°C 47.8°F8.8°C 56.2°F13.4°C
Dew Point 56.0°F13.3°C 43.7°F6.5°C 48.1°F8.9°C
Winds 13.0 mph 20.9 kmh Calm Calm 7.0 mph E11.3 kmh E
Wind Gusts 32.6 mph52.5 kmh -- 15.0 mph24.1 kmh
Humidity 90% 58% 75%
Pressure 30.15 in1021.0 mb 30.01 in1016.3 mb -
Precipitation 0.00 in0.0 mm - -
Hour Temp Dew Point Humidity Winds Wind Gusts Pressure Precip Precip Rate Daily Precip Total
12:00 AM 47.8°F8.8°C 43.9°F6.6°C 86% 1.3 mph E2.1 kmh E 6.1 mph9.8 kmh 30.15 in1021.0 mb 0.00 in0.0 mm 0.00 in0.0 mm 0.00 in0.0 mm
12:15 AM 48.2°F9.0°C 44.2°F6.8°C 86% 0.2 mph E0.3 kmh E 4.3 mph6.9 kmh 30.15 in1021.0 mb 0.00 in0.0 mm 0.00 in0.0 mm 0.00 in0.0 mm
12:30 AM 48.4°F9.1°C 44.7°F7.1°C 87% 0.9 mph E1.4 kmh E 5.0 mph8.0 kmh 30.15 in1021.0 mb 0.00 in0.0 mm 0.00 in0.0 mm 0.00 in0.0 mm
12:45 AM 48.6°F9.2°C 44.9°F7.2°C 87% 2.2 mph E3.5 kmh E 7.9 mph12.7 kmh 30.12 in1020.0 mb 0.00 in0.0 mm 0.00 in0.0 mm 0.00 in0.0 mm
01:00 AM 48.7°F9.3°C 45.0°F7.2°C 87% 0.4 mph E0.6 kmh E 4.3 mph6.9 kmh 30.15 in1021.0 mb 0.00 in0.0 mm 0.00 in0.0 mm 0.00 in0.0 mm
01:15 AM 48.6°F9.2°C 44.6°F7.0°C 86% 1.1 mph E1.8 kmh E 6.1 mph9.8 kmh 30.15 in1021.0 mb 0.00 in0.0 mm 0.00 in0.0 mm 0.00 in0.0 mm
01:30 AM 48.6°F9.2°C 44.6°F7.0°C 86% 1.2 mph E1.9 kmh E 6.1 mph9.8 kmh 30.12 in1020.0 mb 0.00 in0.0 mm 0.00 in0.0 mm 0.00 in0.0 mm
01:45 AM 48.6°F9.2°C 44.6°F7.0°C 86% 1.5 mph E2.4 kmh E 5.0 mph8.0 kmh 30.12 in1020.0 mb 0.00 in0.0 mm 0.00 in0.0 mm 0.00 in0.0 mm
02:00 AM 48.4°F9.1°C 44.1°F6.7°C 85% 0.5 mph E0.8 kmh E 4.3 mph6.9 kmh 30.15 in1021.0 mb 0.00 in0.0 mm 0.00 in0.0 mm 0.00 in0.0 mm
02:15 AM 48.2°F9.0°C 43.9°F6.6°C 85% 1.4 mph E2.3 kmh E 6.1 mph9.8 kmh 30.15 in1021.0 mb 0.00 in0.0 mm 0.00 in0.0 mm 0.00 in0.0 mm
02:30 AM 48.2°F9.0°C 43.9°F6.6°C 85% Calm Calm -- 30.15 in1021.0 mb 0.00 in0.0 mm 0.00 in0.0 mm 0.00 in0.0 mm
02:45 AM 48.0°F8.9°C 43.7°F6.5°C 85% 2.6 mph E4.2 kmh E 7.9 mph12.7 kmh 30.15 in1021.0 mb 0.00 in0.0 mm 0.00 in0.0 mm 0.00 in0.0 mm
03:00 AM 48.4°F9.1°C 44.4°F6.9°C 86% 2.4 mph ENE3.9 kmh ENE 6.4 mph10.3 kmh 30.15 in1021.0 mb 0.00 in0.0 mm 0.00 in0.0 mm 0.00 in0.0 mm
03:15 AM 48.6°F9.2°C 44.6°F7.0°C 86% 4.3 mph E6.9 kmh E 14.0 mph22.5 kmh 30.15 in1021.0 mb 0.00 in0.0 mm 0.00 in0.0 mm 0.00 in0.0 mm
03:30 AM 48.7°F9.3°C 44.7°F7.1°C 86% 3.5 mph E5.6 kmh E 8.6 mph13.8 kmh 30.12 in1020.0 mb 0.00 in0.0 mm 0.00 in0.0 mm 0.00 in0.0 mm
03:45 AM 48.9°F9.4°C 45.2°F7.3°C 87% 5.3 mph E8.5 kmh E 11.5 mph18.5 kmh 30.12 in1020.0 mb 0.00 in0.0 mm 0.00 in0.0 mm 0.00 in0.0 mm
04:00 AM 49.1°F9.5°C 45.4°F7.4°C 87% 4.4 mph E7.1 kmh E 10.4 mph16.7 kmh 30.12 in1020.0 mb 0.00 in0.0 mm 0.00 in0.0 mm 0.00 in0.0 mm
04:15 AM 49.1°F9.5°C 45.4°F7.4°C 87% 5.4 mph E8.7 kmh E 10.7 mph17.2 kmh 30.12 in1020.0 mb 0.00 in0.0 mm 0.00 in0.0 mm 0.00 in0.0 mm
04:30 AM 48.9°F9.4°C 45.2°F7.3°C 87% 5.4 mph E8.7 kmh E 10.4 mph16.7 kmh 30.09 in1019.0 mb 0.00 in0.0 mm 0.00 in0.0 mm 0.00 in0.0 mm
04:45 AM 48.7°F9.3°C 45.0°F7.2°C 87% 5.0 mph E8.0 kmh E 9.3 mph15.0 kmh 30.09 in1019.0 mb 0.00 in0.0 mm 0.00 in0.0 mm 0.00 in0.0 mm
05:00 AM 48.7°F9.3°C 45.0°F7.2°C 87% 5.8 mph E9.3 kmh E 10.4 mph16.7 kmh 30.09 in1019.0 mb 0.00 in0.0 mm 0.00 in0.0 mm 0.00 in0.0 mm
05:15 AM 48.7°F9.3°C 45.0°F7.2°C 87% 6.2 mph E10.0 kmh E 12.9 mph20.8 kmh 30.09 in1019.0 mb 0.00 in0.0 mm 0.00 in0.0 mm 0.00 in0.0 mm
05:30 AM 48.9°F9.4°C 45.2°F7.3°C 87% 6.0 mph E9.7 kmh E 10.4 mph16.7 kmh 30.09 in1019.0 mb 0.00 in0.0 mm 0.00 in0.0 mm 0.00 in0.0 mm
05:45 AM 48.9°F9.4°C 45.2°F7.3°C 87% 6.2 mph E10.0 kmh E 12.9 mph20.8 kmh 30.09 in1019.0 mb 0.00 in0.0 mm 0.00 in0.0 mm 0.00 in0.0 mm
06:00 AM 49.1°F9.5°C 45.7°F7.6°C 88% 5.6 mph E9.0 kmh E 11.5 mph18.5 kmh 30.07 in1018.3 mb 0.00 in0.0 mm 0.00 in0.0 mm 0.00 in0.0 mm
06:15 AM 48.9°F9.4°C 45.5°F7.5°C 88% 5.9 mph E9.5 kmh E 12.5 mph20.1 kmh 30.07 in1018.3 mb 0.00 in0.0 mm 0.00 in0.0 mm 0.00 in0.0 mm
06:30 AM 48.9°F9.4°C 45.5°F7.5°C 88% 4.8 mph E7.7 kmh E 9.3 mph15.0 kmh 30.09 in1019.0 mb 0.00 in0.0 mm 0.00 in0.0 mm 0.00 in0.0 mm
06:47 AM 48.9°F9.4°C 45.5°F7.5°C 88% 4.1 mph E6.6 kmh E 5.0 mph8.0 kmh 30.07 in1018.3 mb 0.00 in0.0 mm 0.00 in0.0 mm 0.00 in0.0 mm
07:00 AM 49.3°F9.6°C 46.2°F7.9°C 89% 4.3 mph E6.9 kmh E 8.9 mph14.3 kmh 30.09 in1019.0 mb 0.00 in0.0 mm 0.00 in0.0 mm 0.00 in0.0 mm
07:15 AM 50.0°F10.0°C 46.9°F8.3°C 89% 1.3 mph ENE2.1 kmh ENE 5.7 mph9.2 kmh 30.09 in1019.0 mb 0.00 in0.0 mm 0.00 in0.0 mm 0.00 in0.0 mm
07:30 AM 50.5°F10.3°C 47.4°F8.6°C 89% 2.2 mph NE3.5 kmh NE 7.5 mph12.1 kmh 30.07 in1018.3 mb 0.00 in0.0 mm 0.00 in0.0 mm 0.00 in0.0 mm
07:45 AM 51.3°F10.7°C 48.4°F9.1°C 90% 3.7 mph NE6.0 kmh NE 9.3 mph15.0 kmh 30.09 in1019.0 mb 0.00 in0.0 mm 0.00 in0.0 mm 0.00 in0.0 mm
08:00 AM 51.8°F11.0°C 49.0°F9.4°C 90% 3.8 mph NE6.1 kmh NE 10.4 mph16.7 kmh 30.09 in1019.0 mb 0.00 in0.0 mm 0.00 in0.0 mm 0.00 in0.0 mm
08:15 AM 52.2°F11.2°C 49.3°F9.6°C 90% 2.3 mph NE3.7 kmh NE 7.9 mph12.7 kmh 30.09 in1019.0 mb 0.00 in0.0 mm 0.00 in0.0 mm 0.00 in0.0 mm
08:30 AM 52.9°F11.6°C 50.0°F10.0°C 90% 5.1 mph E8.2 kmh E 10.4 mph16.7 kmh 30.09 in1019.0 mb 0.00 in0.0 mm 0.00 in0.0 mm 0.00 in0.0 mm
08:45 AM 53.6°F12.0°C 50.7°F10.4°C 90% 5.0 mph ENE8.0 kmh ENE 11.8 mph19.0 kmh 30.09 in1019.0 mb 0.00 in0.0 mm 0.00 in0.0 mm 0.00 in0.0 mm
09:00 AM 54.7°F12.6°C 51.8°F11.0°C 90% 5.7 mph E9.2 kmh E 11.8 mph19.0 kmh 30.09 in1019.0 mb 0.00 in0.0 mm 0.00 in0.0 mm 0.00 in0.0 mm
09:15 AM 55.9°F13.3°C 53.0°F11.7°C 90% 9.3 mph E15.0 kmh E 24.3 mph39.1 kmh 30.09 in1019.0 mb 0.00 in0.0 mm 0.00 in0.0 mm 0.00 in0.0 mm
09:30 AM 56.8°F13.8°C 53.3°F11.8°C 88% 10.9 mph E17.5 kmh E 20.0 mph32.2 kmh 30.07 in1018.3 mb 0.00 in0.0 mm 0.00 in0.0 mm 0.00 in0.0 mm
09:45 AM 57.7°F14.3°C 53.9°F12.2°C 87% 8.9 mph E14.3 kmh E 20.0 mph32.2 kmh 30.07 in1018.3 mb 0.00 in0.0 mm 0.00 in0.0 mm 0.00 in0.0 mm
10:00 AM 58.3°F14.6°C 53.8°F12.1°C 85% 10.0 mph E16.1 kmh E 23.6 mph38.0 kmh 30.07 in1018.3 mb 0.00 in0.0 mm 0.00 in0.0 mm 0.00 in0.0 mm
10:15 AM 59.2°F15.1°C 54.3°F12.4°C 84% 8.8 mph E14.2 kmh E 17.5 mph28.2 kmh 30.09 in1019.0 mb 0.00 in0.0 mm 0.00 in0.0 mm 0.00 in0.0 mm
10:30 AM 59.9°F15.5°C 55.1°F12.8°C 84% 7.7 mph E12.4 kmh E 15.4 mph24.8 kmh 30.09 in1019.0 mb 0.00 in0.0 mm 0.00 in0.0 mm 0.00 in0.0 mm
10:45 AM 60.8°F16.0°C 55.6°F13.1°C 83% 5.7 mph E9.2 kmh E 14.0 mph22.5 kmh 30.09 in1019.0 mb 0.00 in0.0 mm 0.00 in0.0 mm 0.00 in0.0 mm
11:00 AM 61.7°F16.5°C 55.8°F13.2°C 81% 8.5 mph E13.7 kmh E 16.1 mph25.9 kmh 30.09 in1019.0 mb 0.00 in0.0 mm 0.00 in0.0 mm 0.00 in0.0 mm
11:15 AM 62.6°F17.0°C 55.6°F13.1°C 78% 8.8 mph E14.2 kmh E 17.2 mph27.7 kmh 30.09 in1019.0 mb 0.00 in0.0 mm 0.00 in0.0 mm 0.00 in0.0 mm
11:30 AM 63.3°F17.4°C 56.0°F13.3°C 77% 8.6 mph E13.8 kmh E 19.3 mph31.1 kmh 30.09 in1019.0 mb 0.00 in0.0 mm 0.00 in0.0 mm 0.00 in0.0 mm
11:45 AM 63.9°F17.7°C 55.8°F13.2°C 75% 8.1 mph E13.0 kmh E 20.4 mph32.8 kmh 30.09 in1019.0 mb 0.00 in0.0 mm 0.00 in0.0 mm 0.00 in0.0 mm
12:00 PM 64.4°F18.0°C 55.6°F13.1°C 73% 8.6 mph E13.8 kmh E 17.5 mph28.2 kmh 30.09 in1019.0 mb 0.00 in0.0 mm 0.00 in0.0 mm 0.00 in0.0 mm
12:15 PM 65.1°F18.4°C 55.9°F13.3°C 72% 9.5 mph E15.3 kmh E 20.8 mph33.5 kmh 30.09 in1019.0 mb 0.00 in0.0 mm 0.00 in0.0 mm 0.00 in0.0 mm
12:30 PM 65.5°F18.6°C 55.0°F12.8°C 69% 11.1 mph ESE17.9 kmh ESE 32.6 mph52.5 kmh 30.07 in1018.3 mb 0.00 in0.0 mm 0.00 in0.0 mm 0.00 in0.0 mm
12:45 PM 65.8°F18.8°C 55.4°F13.0°C 69% 9.5 mph E15.3 kmh E 17.2 mph27.7 kmh 30.07 in1018.3 mb 0.00 in0.0 mm 0.00 in0.0 mm 0.00 in0.0 mm
01:00 PM 66.2°F19.0°C 54.5°F12.5°C 66% 9.4 mph ESE15.1 kmh ESE 24.7 mph39.8 kmh 30.07 in1018.3 mb 0.00 in0.0 mm 0.00 in0.0 mm 0.00 in0.0 mm
01:15 PM 66.4°F19.1°C 54.7°F12.6°C 66% 9.6 mph ESE15.4 kmh ESE 20.8 mph33.5 kmh 30.07 in1018.3 mb 0.00 in0.0 mm 0.00 in0.0 mm 0.00 in0.0 mm
01:30 PM 66.6°F19.2°C 53.6°F12.0°C 63% 11.4 mph ESE18.3 kmh ESE 27.2 mph43.8 kmh 30.07 in1018.3 mb 0.00 in0.0 mm 0.00 in0.0 mm 0.00 in0.0 mm
01:45 PM 66.7°F19.3°C 53.7°F12.1°C 63% 11.9 mph ESE19.2 kmh ESE 28.3 mph45.5 kmh 30.04 in1017.3 mb 0.00 in0.0 mm 0.00 in0.0 mm 0.00 in0.0 mm
02:00 PM 66.7°F19.3°C 53.3°F11.8°C 62% 10.7 mph ESE17.2 kmh ESE 21.1 mph34.0 kmh 30.04 in1017.3 mb 0.00 in0.0 mm 0.00 in0.0 mm 0.00 in0.0 mm
02:15 PM 66.9°F19.4°C 53.5°F11.9°C 62% 10.9 mph ESE17.5 kmh ESE 24.3 mph39.1 kmh 30.04 in1017.3 mb 0.00 in0.0 mm 0.00 in0.0 mm 0.00 in0.0 mm
02:30 PM 66.7°F19.3°C 52.9°F11.6°C 61% 13.0 mph E20.9 kmh E 28.3 mph45.5 kmh 30.04 in1017.3 mb 0.00 in0.0 mm 0.00 in0.0 mm 0.00 in0.0 mm
02:45 PM 66.7°F19.3°C 52.4°F11.3°C 60% 10.1 mph ESE16.3 kmh ESE 20.4 mph32.8 kmh 30.04 in1017.3 mb 0.00 in0.0 mm 0.00 in0.0 mm 0.00 in0.0 mm
03:00 PM 66.6°F19.2°C 52.2°F11.2°C 60% 11.4 mph E18.3 kmh E 25.1 mph40.4 kmh 30.01 in1016.3 mb 0.00 in0.0 mm 0.00 in0.0 mm 0.00 in0.0 mm
03:15 PM 66.2°F19.0°C 51.4°F10.8°C 59% 9.7 mph ESE15.6 kmh ESE 22.9 mph36.9 kmh 30.01 in1016.3 mb 0.00 in0.0 mm 0.00 in0.0 mm 0.00 in0.0 mm
03:30 PM 65.8°F18.8°C 50.6°F10.3°C 58% 11.2 mph E18.0 kmh E 24.7 mph39.8 kmh 30.04 in1017.3 mb 0.00 in0.0 mm 0.00 in0.0 mm 0.00 in0.0 mm
03:45 PM 65.3°F18.5°C 50.1°F10.1°C 58% 10.3 mph E16.6 kmh E 21.1 mph34.0 kmh 30.04 in1017.3 mb 0.00 in0.0 mm 0.00 in0.0 mm 0.00 in0.0 mm
04:00 PM 64.9°F18.3°C 49.8°F9.9°C 58% 11.5 mph ESE18.5 kmh ESE 21.1 mph34.0 kmh 30.04 in1017.3 mb 0.00 in0.0 mm 0.00 in0.0 mm 0.00 in0.0 mm
04:15 PM 64.6°F18.1°C 49.5°F9.7°C 58% 12.1 mph E19.5 kmh E 23.6 mph38.0 kmh 30.04 in1017.3 mb 0.00 in0.0 mm 0.00 in0.0 mm 0.00 in0.0 mm
04:30 PM 63.9°F17.7°C 48.8°F9.3°C 58% 9.6 mph E15.4 kmh E 20.0 mph32.2 kmh 30.01 in1016.3 mb 0.00 in0.0 mm 0.00 in0.0 mm 0.00 in0.0 mm
04:45 PM 63.1°F17.3°C 48.1°F8.9°C 58% 10.9 mph E17.5 kmh E 21.1 mph34.0 kmh 30.01 in1016.3 mb 0.00 in0.0 mm 0.00 in0.0 mm 0.00 in0.0 mm
05:00 PM 62.4°F16.9°C 47.9°F8.8°C 59% 9.2 mph E14.8 kmh E 21.1 mph34.0 kmh 30.01 in1016.3 mb 0.00 in0.0 mm 0.00 in0.0 mm 0.00 in0.0 mm
05:15 PM 61.5°F16.4°C 47.5°F8.6°C 60% 9.6 mph E15.4 kmh E 23.6 mph38.0 kmh 30.01 in1016.3 mb 0.00 in0.0 mm 0.00 in0.0 mm 0.00 in0.0 mm
05:30 PM 60.8°F16.0°C 47.3°F8.5°C 61% 7.8 mph E12.6 kmh E 15.0 mph24.1 kmh 30.01 in1016.3 mb 0.00 in0.0 mm 0.00 in0.0 mm 0.00 in0.0 mm
05:45 PM 60.3°F15.7°C 46.8°F8.2°C 61% 8.6 mph E13.8 kmh E 20.4 mph32.8 kmh 30.01 in1016.3 mb 0.00 in0.0 mm 0.00 in0.0 mm 0.00 in0.0 mm
06:00 PM 59.7°F15.4°C 46.7°F8.2°C 62% 6.7 mph E10.8 kmh E 17.5 mph28.2 kmh 30.04 in1017.3 mb 0.00 in0.0 mm 0.00 in0.0 mm 0.00 in0.0 mm
06:15 PM 59.2°F15.1°C 46.2°F7.9°C 62% 9.0 mph E14.5 kmh E 20.8 mph33.5 kmh 30.04 in1017.3 mb 0.00 in0.0 mm 0.00 in0.0 mm 0.00 in0.0 mm
06:30 PM 58.8°F14.9°C 46.2°F7.9°C 63% 9.2 mph E14.8 kmh E 22.2 mph35.7 kmh 30.04 in1017.3 mb 0.00 in0.0 mm 0.00 in0.0 mm 0.00 in0.0 mm
06:45 PM 58.3°F14.6°C 45.7°F7.6°C 63% 5.2 mph E8.4 kmh E 12.5 mph20.1 kmh 30.04 in1017.3 mb 0.00 in0.0 mm 0.00 in0.0 mm 0.00 in0.0 mm
07:00 PM 57.4°F14.1°C 44.9°F7.2°C 63% 8.1 mph E13.0 kmh E 22.9 mph36.9 kmh 30.01 in1016.3 mb 0.00 in0.0 mm 0.00 in0.0 mm 0.00 in0.0 mm
07:15 PM 57.0°F13.9°C 45.0°F7.2°C 64% 8.7 mph E14.0 kmh E 16.8 mph27.0 kmh 30.01 in1016.3 mb 0.00 in0.0 mm 0.00 in0.0 mm 0.00 in0.0 mm
07:30 PM 56.7°F13.7°C 44.6°F7.0°C 64% 7.6 mph E12.2 kmh E 19.3 mph31.1 kmh 30.04 in1017.3 mb 0.00 in0.0 mm 0.00 in0.0 mm 0.00 in0.0 mm
07:45 PM 56.3°F13.5°C 44.3°F6.8°C 64% 6.1 mph E9.8 kmh E 16.1 mph25.9 kmh 30.04 in1017.3 mb 0.00 in0.0 mm 0.00 in0.0 mm 0.00 in0.0 mm
08:00 PM 55.9°F13.3°C 44.3°F6.8°C 65% 8.5 mph E13.7 kmh E 19.0 mph30.6 kmh 30.01 in1016.3 mb 0.00 in0.0 mm 0.00 in0.0 mm 0.00 in0.0 mm
08:15 PM 55.8°F13.2°C 44.2°F6.8°C 65% 7.9 mph E12.7 kmh E 14.7 mph23.7 kmh 30.04 in1017.3 mb 0.00 in0.0 mm 0.00 in0.0 mm 0.00 in0.0 mm
08:30 PM 55.6°F13.1°C 44.4°F6.9°C 66% 9.3 mph E15.0 kmh E 17.5 mph28.2 kmh 30.01 in1016.3 mb 0.00 in0.0 mm 0.00 in0.0 mm 0.00 in0.0 mm
08:45 PM 55.6°F13.1°C 44.4°F6.9°C 66% 9.0 mph E14.5 kmh E 17.2 mph27.7 kmh 30.04 in1017.3 mb 0.00 in0.0 mm 0.00 in0.0 mm 0.00 in0.0 mm
09:00 PM 55.4°F13.0°C 44.2°F6.8°C 66% 9.4 mph E15.1 kmh E 20.0 mph32.2 kmh 30.04 in1017.3 mb 0.00 in0.0 mm 0.00 in0.0 mm 0.00 in0.0 mm
09:15 PM 55.6°F13.1°C 44.4°F6.9°C 66% 7.2 mph ESE11.6 kmh ESE 20.4 mph32.8 kmh 30.04 in1017.3 mb 0.00 in0.0 mm 0.00 in0.0 mm 0.00 in0.0 mm
09:30 PM 55.4°F13.0°C 44.6°F7.0°C 67% 9.0 mph E14.5 kmh E 16.1 mph25.9 kmh 30.04 in1017.3 mb 0.00 in0.0 mm 0.00 in0.0 mm 0.00 in0.0 mm
09:45 PM 55.2°F12.9°C 44.4°F6.9°C 67% 6.6 mph E10.6 kmh E 17.2 mph27.7 kmh 30.01 in1016.3 mb 0.00 in0.0 mm 0.00 in0.0 mm 0.00 in0.0 mm
10:00 PM 55.2°F12.9°C 44.8°F7.1°C 68% 7.0 mph E11.3 kmh E 15.0 mph24.1 kmh 30.01 in1016.3 mb 0.00 in0.0 mm 0.00 in0.0 mm 0.00 in0.0 mm
10:15 PM 55.0°F12.8°C 45.1°F7.3°C 69% 6.1 mph E9.8 kmh E 14.0 mph22.5 kmh 30.04 in1017.3 mb 0.00 in0.0 mm 0.00 in0.0 mm 0.00 in0.0 mm
10:30 PM 54.9°F12.7°C 44.9°F7.2°C 69% 6.9 mph E11.1 kmh E 16.8 mph27.0 kmh 30.04 in1017.3 mb 0.00 in0.0 mm 0.00 in0.0 mm 0.00 in0.0 mm
10:45 PM 54.7°F12.6°C 45.1°F7.3°C 70% 6.2 mph E10.0 kmh E 14.0 mph22.5 kmh 30.07 in1018.3 mb 0.00 in0.0 mm 0.00 in0.0 mm 0.00 in0.0 mm
11:00 PM 54.5°F12.5°C 45.3°F7.4°C 71% 6.8 mph E10.9 kmh E 14.0 mph22.5 kmh 30.01 in1016.3 mb 0.00 in0.0 mm 0.00 in0.0 mm 0.00 in0.0 mm
11:15 PM 54.5°F12.5°C 45.7°F7.6°C 72% 5.3 mph E8.5 kmh E 11.8 mph19.0 kmh 30.01 in1016.3 mb 0.00 in0.0 mm 0.00 in0.0 mm 0.00 in0.0 mm
11:30 PM 54.5°F12.5°C 46.0°F7.8°C 73% 5.9 mph E9.5 kmh E 14.3 mph23.0 kmh 30.01 in1016.3 mb 0.00 in0.0 mm 0.00 in0.0 mm 0.00 in0.0 mm
11:45 PM 54.5°F12.5°C 46.4°F8.0°C 74% 4.6 mph E7.4 kmh E 12.2 mph19.6 kmh 30.07 in1018.3 mb 0.00 in0.0 mm 0.00 in0.0 mm 0.00 in0.0 mm